Time;durP1;ratioP1;P1;durP2;ratioP2;P2;SDS_P1;SDS_P2;PMS_P1;PMS_P2;Temp;Humidity;BMP_temperature;BMP_pressure;BME280_temperature;BME280_humidity;BME280_pressure;Samples;Min_cycle;Max_cycle;Signal;HPM_P1;HPM_P2
2023/03/30 00:01:16;;;;;;;4.03;3.20;;;8.90;99.90;;;;;;4995768;28;20037;-58
2023/03/30 00:03:42;;;;;;;4.70;3.35;;;8.90;99.90;;;;;;4998883;28;20031;-58
2023/03/30 00:06:19;;;;;;;4.50;3.78;;;8.90;99.90;;;;;;5000166;28;20036;-56
2023/03/30 00:08:45;;;;;;;5.90;3.70;;;8.80;99.90;;;;;;4999697;28;20101;-59
2023/03/30 00:11:14;;;;;;;5.90;3.35;;;8.80;99.90;;;;;;4997413;28;20503;-58
2023/03/30 00:13:40;;;;;;;10.52;3.85;;;8.80;99.90;;;;;;4996878;28;20031;-59
2023/03/30 00:16:08;;;;;;;4.35;3.95;;;8.80;99.90;;;;;;4998374;28;20125;-57
2023/03/30 00:18:35;;;;;;;16.05;4.75;;;8.80;99.90;;;;;;4998356;28;20027;-59
2023/03/30 00:21:02;;;;;;;6.43;3.42;;;8.70;99.90;;;;;;4999075;28;20025;-57
2023/03/30 00:23:28;;;;;;;4.90;3.92;;;8.70;99.90;;;;;;4996701;28;20029;-57
2023/03/30 00:25:54;;;;;;;4.30;3.70;;;8.80;99.90;;;;;;4997453;28;20031;-58
2023/03/30 00:28:21;;;;;;;6.07;5.03;;;8.80;99.90;;;;;;4999302;28;20033;-59
2023/03/30 00:30:47;;;;;;;4.70;3.80;;;8.80;99.90;;;;;;4998871;28;20165;-58
2023/03/30 00:33:13;;;;;;;8.55;3.47;;;8.70;99.90;;;;;;4997118;28;20023;-58
2023/03/30 00:35:39;;;;;;;6.00;3.88;;;8.80;99.90;;;;;;4998155;28;20053;-56
2023/03/30 00:38:05;;;;;;;5.28;4.28;;;8.70;99.90;;;;;;4996983;28;20026;-58
2023/03/30 00:40:33;;;;;;;5.95;4.28;;;8.70;99.90;;;;;;4998355;28;20037;-60
2023/03/30 00:43:03;;;;;;;5.60;4.22;;;8.70;99.90;;;;;;4998526;28;20030;-60
2023/03/30 00:45:31;;;;;;;5.38;4.55;;;8.80;99.90;;;;;;4993270;28;20030;-60
2023/03/30 00:47:56;;;;;;;6.55;4.63;;;8.80;99.90;;;;;;4998923;28;20529;-59
2023/03/30 00:50:28;;;;;;;6.57;4.68;;;8.80;99.90;;;;;;4998914;28;20035;-60
2023/03/30 00:52:57;;;;;;;5.32;4.60;;;8.80;99.90;;;;;;4999754;28;20042;-58
2023/03/30 00:55:27;;;;;;;6.55;5.85;;;8.80;99.90;;;;;;4995749;28;20615;-60
2023/03/30 00:57:53;;;;;;;5.85;4.68;;;8.90;99.90;;;;;;4997118;28;20027;-60
2023/03/30 01:00:20;;;;;;;6.00;4.95;;;8.90;99.90;;;;;;4998465;28;20754;-59
2023/03/30 01:02:54;;;;;;;5.22;4.72;;;8.80;99.90;;;;;;5000210;28;20084;-59
2023/03/30 01:05:22;;;;;;;5.38;4.90;;;8.80;99.90;;;;;;4996332;28;20038;-60
2023/03/30 01:07:49;;;;;;;5.00;4.50;;;8.80;99.90;;;;;;4993122;28;20091;-61
2023/03/30 01:10:15;;;;;;;6.63;5.63;;;8.80;99.90;;;;;;5000808;28;20022;-60
2023/03/30 01:12:41;;;;;;;5.63;5.13;;;8.70;99.90;;;;;;4997766;28;20041;-58
2023/03/30 01:15:08;;;;;;;7.28;5.00;;;8.70;99.90;;;;;;4997404;28;20038;-59
2023/03/30 01:17:52;;;;;;;5.80;4.40;;;8.70;99.90;;;;;;4998836;28;20034;-60
2023/03/30 01:20:39;;;;;;;11.63;5.50;;;8.70;99.90;;;;;;4998375;28;20065;-60
2023/03/30 01:23:45;;;;;;;6.32;5.55;;;8.70;99.90;;;;;;4997416;28;20033;-59
2023/03/30 01:26:32;;;;;;;6.82;5.25;;;8.70;99.90;;;;;;4995821;28;20053;-59
2023/03/30 01:29:09;;;;;;;5.60;5.10;;;8.80;99.90;;;;;;5000579;28;20040;-59
2023/03/30 01:31:40;;;;;;;6.30;5.22;;;8.80;99.90;;;;;;4996529;28;20881;-61
2023/03/30 01:34:09;;;;;;;5.82;4.65;;;8.80;99.90;;;;;;4993852;28;20395;-60
2023/03/30 01:37:16;;;;;;;5.95;5.45;;;8.80;99.90;;;;;;4994441;28;20756;-60
2023/03/30 01:39:47;;;;;;;7.22;5.00;;;8.80;99.90;;;;;;4995769;28;20060;-60
2023/03/30 01:42:22;;;;;;;8.93;5.28;;;8.70;99.90;;;;;;4997916;28;20075;-61
2023/03/30 01:44:55;;;;;;;6.35;5.45;;;8.70;99.90;;;;;;4994900;28;20023;-59
2023/03/30 01:47:26;;;;;;;6.18;5.28;;;8.70;99.90;;;;;;4997579;28;20437;-59
2023/03/30 01:50:09;;;;;;;5.85;5.22;;;8.70;99.90;;;;;;5000780;28;20080;-60
2023/03/30 01:52:52;;;;;;;6.15;5.32;;;8.70;99.90;;;;;;4996220;28;20125;-59
2023/03/30 01:55:52;;;;;;;6.85;6.05;;;8.70;99.90;;;;;;4996802;28;20034;-59
2023/03/30 01:58:31;;;;;;;6.00;5.43;;;8.70;99.90;;;;;;4999477;28;20026;-61
2023/03/30 02:01:00;;;;;;;6.43;5.72;;;8.70;99.90;;;;;;4993046;28;20057;-60
2023/03/30 02:03:31;;;;;;;7.68;6.32;;;8.70;99.90;;;;;;4994915;28;20022;-59
2023/03/30 02:06:25;;;;;;;6.38;5.75;;;8.70;99.90;;;;;;4996813;28;20030;-60
2023/03/30 02:08:53;;;;;;;6.55;5.20;;;8.70;99.90;;;;;;4996693;28;20112;-60
2023/03/30 02:11:22;;;;;;;7.72;5.55;;;8.80;99.90;;;;;;4994466;28;20034;-60
2023/03/30 02:13:50;;;;;;;8.48;5.82;;;8.70;99.90;;;;;;4994843;28;20026;-60
2023/03/30 02:16:23;;;;;;;7.15;5.80;;;8.70;99.90;;;;;;4995088;28;20421;-65
2023/03/30 02:18:49;;;;;;;6.15;5.30;;;8.80;99.90;;;;;;4996415;28;20406;-60
2023/03/30 02:21:15;;;;;;;13.10;6.20;;;8.80;99.90;;;;;;4999101;28;20026;-59
2023/03/30 02:23:44;;;;;;;8.20;5.15;;;8.80;99.90;;;;;;4998615;28;20104;-58
2023/03/30 02:26:11;;;;;;;6.97;5.40;;;8.70;99.90;;;;;;4995576;28;20033;-61
2023/03/30 02:28:36;;;;;;;6.25;5.65;;;8.70;99.90;;;;;;4995760;28;20035;-60
2023/03/30 02:31:03;;;;;;;8.05;5.82;;;8.70;99.90;;;;;;4997650;28;20048;-58
2023/03/30 02:34:14;;;;;;;5.93;5.32;;;8.60;99.90;;;;;;4995676;28;20503;-60
2023/03/30 02:37:04;;;;;;;7.22;5.82;;;8.60;99.90;;;;;;4995805;28;20053;-61
2023/03/30 02:39:44;;;;;;;7.18;5.38;;;8.50;99.90;;;;;;4997111;28;20145;-60
2023/03/30 02:42:30;;;;;;;6.05;5.32;;;8.30;99.90;;;;;;4996819;28;20601;-60
2023/03/30 02:45:02;;;;;;;6.90;6.18;;;8.30;99.90;;;;;;4995446;28;20137;-61
2023/03/30 02:47:35;;;;;;;6.53;5.60;;;8.30;99.90;;;;;;4997631;28;20034;-58
2023/03/30 02:50:56;;;;;;;7.18;6.47;;;8.30;99.90;;;;;;4995395;28;20097;-60
2023/03/30 02:53:45;;;;;;;9.30;6.30;;;8.20;99.90;;;;;;4996117;28;20552;-61
2023/03/30 02:56:27;;;;;;;7.10;6.28;;;8.20;99.90;;;;;;4997012;28;20116;-61
2023/03/30 02:59:00;;;;;;;9.80;5.82;;;8.20;99.90;;;;;;4994139;28;20109;-61
2023/03/30 03:01:44;;;;;;;7.43;6.18;;;8.20;99.90;;;;;;4995505;28;20184;-59
2023/03/30 03:04:11;;;;;;;7.10;6.43;;;8.20;99.90;;;;;;4997486;28;20032;-60
2023/03/30 03:06:37;;;;;;;8.57;7.22;;;8.20;99.90;;;;;;4996592;28;20054;-59
2023/03/30 03:09:04;;;;;;;10.95;6.75;;;8.20;99.90;;;;;;4999379;28;20030;-61
2023/03/30 03:11:29;;;;;;;9.60;6.35;;;8.20;99.90;;;;;;4998562;28;20030;-60
2023/03/30 03:13:55;;;;;;;8.38;6.07;;;8.10;99.90;;;;;;5003819;28;20475;-59
2023/03/30 03:16:21;;;;;;;8.63;6.97;;;8.00;99.90;;;;;;5000745;28;20038;-60
2023/03/30 03:18:48;;;;;;;7.70;7.00;;;7.90;99.90;;;;;;4998275;28;20076;-60
2023/03/30 03:21:14;;;;;;;8.35;7.07;;;7.90;99.90;;;;;;4998169;28;20026;-61
2023/03/30 03:23:41;;;;;;;9.38;7.53;;;7.90;99.90;;;;;;4999722;28;20560;-60
2023/03/30 03:26:08;;;;;;;7.30;6.45;;;7.90;99.90;;;;;;4998907;28;20030;-59
2023/03/30 03:28:35;;;;;;;8.30;6.97;;;7.90;99.90;;;;;;4999528;28;20026;-60
2023/03/30 03:31:01;;;;;;;10.25;7.55;;;7.90;99.90;;;;;;4999061;28;20056;-58
2023/03/30 03:33:27;;;;;;;7.85;7.05;;;7.90;99.90;;;;;;5000692;28;20494;-60
2023/03/30 03:35:54;;;;;;;10.30;7.05;;;7.90;99.90;;;;;;4999272;28;20122;-61
2023/03/30 03:38:23;;;;;;;7.75;7.07;;;7.80;99.90;;;;;;4997492;28;20068;-60
2023/03/30 03:40:53;;;;;;;7.95;7.25;;;7.90;99.90;;;;;;5002749;28;20029;-60
2023/03/30 03:43:20;;;;;;;7.95;7.15;;;7.90;99.90;;;;;;4999897;28;20034;-60
2023/03/30 03:45:46;;;;;;;10.95;7.32;;;7.80;99.90;;;;;;4998894;28;20045;-60
2023/03/30 03:48:16;;;;;;;9.27;7.25;;;7.80;99.90;;;;;;4998263;28;20114;-60
2023/03/30 03:50:43;;;;;;;8.30;7.15;;;7.90;99.90;;;;;;4997839;28;20096;-59
2023/03/30 03:53:10;;;;;;;7.05;6.30;;;7.90;99.90;;;;;;4998849;28;20413;-60
2023/03/30 03:55:36;;;;;;;11.27;6.75;;;7.90;99.90;;;;;;4997604;28;20056;-59
2023/03/30 03:58:03;;;;;;;11.70;7.10;;;7.90;99.90;;;;;;5000002;28;20127;-59
2023/03/30 04:00:29;;;;;;;7.22;6.63;;;8.00;99.90;;;;;;4999550;28;20494;-60
2023/03/30 04:02:55;;;;;;;10.02;7.75;;;7.90;99.90;;;;;;4998698;28;20022;-59
2023/03/30 04:05:22;;;;;;;7.97;6.80;;;7.90;99.90;;;;;;4996619;28;20037;-60
2023/03/30 04:07:47;;;;;;;8.23;7.43;;;8.00;99.90;;;;;;4998355;28;20014;-59
2023/03/30 04:10:13;;;;;;;9.98;8.05;;;8.00;99.90;;;;;;4999032;28;20470;-61
2023/03/30 04:12:39;;;;;;;13.05;8.60;;;8.00;99.90;;;;;;5000712;28;20568;-59
2023/03/30 04:15:06;;;;;;;9.88;7.57;;;8.00;99.90;;;;;;4997697;28;20062;-58
2023/03/30 04:17:35;;;;;;;8.68;7.45;;;8.10;99.90;;;;;;4996091;28;20569;-60
2023/03/30 04:20:04;;;;;;;9.60;8.02;;;8.10;99.90;;;;;;4997701;28;20030;-59
2023/03/30 04:22:40;;;;;;;14.65;8.07;;;8.10;99.90;;;;;;4995003;28;20046;-59
2023/03/30 04:25:10;;;;;;;10.43;7.40;;;8.10;99.90;;;;;;4997732;28;20038;-61
2023/03/30 04:27:36;;;;;;;8.05;7.28;;;8.10;99.90;;;;;;4999416;28;20038;-59
2023/03/30 04:30:05;;;;;;;12.30;7.55;;;8.20;99.90;;;;;;4999533;28;20121;-61
2023/03/30 04:32:33;;;;;;;9.48;7.15;;;8.20;99.90;;;;;;4998668;28;20029;-60
2023/03/30 04:35:00;;;;;;;8.88;7.53;;;8.20;99.90;;;;;;4999228;28;20049;-58
2023/03/30 04:37:29;;;;;;;9.05;8.18;;;8.20;99.90;;;;;;4997567;28;20439;-59
2023/03/30 04:39:56;;;;;;;8.75;7.85;;;8.20;99.90;;;;;;4997645;28;20061;-60
2023/03/30 04:42:29;;;;;;;9.13;7.38;;;8.30;99.90;;;;;;4996804;28;20029;-61
2023/03/30 04:44:58;;;;;;;8.80;7.32;;;8.30;99.90;;;;;;4995381;28;20074;-59
2023/03/30 04:47:29;;;;;;;8.70;7.72;;;8.30;99.90;;;;;;4997202;28;20109;-59
2023/03/30 04:49:54;;;;;;;11.20;7.75;;;8.30;99.90;;;;;;4996954;28;20512;-61
2023/03/30 04:52:20;;;;;;;8.93;7.03;;;8.30;99.90;;;;;;5001061;28;20045;-60
2023/03/30 04:54:46;;;;;;;11.05;8.35;;;8.30;99.90;;;;;;4994948;28;20031;-61
2023/03/30 04:57:13;;;;;;;8.40;7.60;;;8.30;99.90;;;;;;4993806;28;20040;-61
2023/03/30 04:59:40;;;;;;;7.68;6.97;;;8.30;99.90;;;;;;4998809;28;20034;-58
2023/03/30 05:02:06;;;;;;;10.40;7.95;;;8.30;99.90;;;;;;4998241;28;20762;-58
2023/03/30 05:04:31;;;;;;;11.68;7.18;;;8.30;99.90;;;;;;4997141;28;20094;-56
2023/03/30 05:06:57;;;;;;;12.07;8.35;;;8.30;99.90;;;;;;4999448;28;20121;-57
2023/03/30 05:09:23;;;;;;;10.02;8.90;;;8.30;99.90;;;;;;4997258;28;20073;-60
2023/03/30 05:11:49;;;;;;;12.68;9.48;;;8.30;99.90;;;;;;4995966;28;20034;-60
2023/03/30 05:14:15;;;;;;;9.32;8.40;;;8.20;99.90;;;;;;4997406;28;20087;-60
2023/03/30 05:16:41;;;;;;;11.82;9.82;;;8.20;99.90;;;;;;4999846;28;20080;-60
2023/03/30 05:19:07;;;;;;;10.25;9.30;;;8.10;99.90;;;;;;4996296;28;20022;-62
2023/03/30 05:21:32;;;;;;;10.27;8.57;;;8.10;99.90;;;;;;4999452;28;20062;-59
2023/03/30 05:23:58;;;;;;;9.52;8.48;;;8.10;99.90;;;;;;4996486;28;20066;-61
2023/03/30 05:26:25;;;;;;;11.38;9.38;;;8.10;99.90;;;;;;5000942;28;20393;-61
2023/03/30 05:28:51;;;;;;;12.82;9.30;;;8.10;99.90;;;;;;4998089;28;20030;-62
2023/03/30 05:31:18;;;;;;;13.88;10.68;;;8.20;99.90;;;;;;4996345;28;20063;-60
2023/03/30 05:33:44;;;;;;;10.30;9.30;;;8.20;99.90;;;;;;4999871;28;20221;-59
2023/03/30 05:36:10;;;;;;;10.45;9.35;;;8.20;99.90;;;;;;4999147;28;20558;-60
2023/03/30 05:38:36;;;;;;;9.30;8.40;;;8.20;99.90;;;;;;4998327;28;20833;-57
2023/03/30 05:41:03;;;;;;;16.98;10.18;;;8.20;99.90;;;;;;4998720;28;20022;-58
2023/03/30 05:43:30;;;;;;;14.73;9.73;;;8.20;99.90;;;;;;4994633;28;20072;-60
2023/03/30 05:45:55;;;;;;;14.55;9.93;;;8.20;99.90;;;;;;4998259;28;20027;-60
2023/03/30 05:48:21;;;;;;;12.48;10.18;;;8.20;99.90;;;;;;4998579;28;20026;-60
2023/03/30 05:50:47;;;;;;;15.50;10.98;;;8.20;99.90;;;;;;4994954;28;20031;-61
2023/03/30 05:53:13;;;;;;;11.52;9.68;;;8.20;99.90;;;;;;4998233;28;20030;-62
2023/03/30 05:55:41;;;;;;;12.35;9.25;;;8.20;99.90;;;;;;4997698;28;20735;-59
2023/03/30 05:58:07;;;;;;;9.82;8.75;;;8.20;99.90;;;;;;4994400;28;20530;-60
2023/03/30 06:00:35;;;;;;;13.63;9.30;;;8.30;99.90;;;;;;4994447;28;20146;-61
2023/03/30 06:03:01;;;;;;;9.30;8.40;;;8.30;99.90;;;;;;4997224;28;20046;-60
2023/03/30 06:05:26;;;;;;;15.27;8.32;;;8.20;99.90;;;;;;4999888;28;20030;-61
2023/03/30 06:07:53;;;;;;;12.27;8.02;;;8.20;99.90;;;;;;4999021;28;20026;-61
2023/03/30 06:10:19;;;;;;;12.88;8.20;;;8.20;99.90;;;;;;4997656;28;20030;-59
2023/03/30 06:12:44;;;;;;;14.20;7.82;;;8.20;99.90;;;;;;4996477;28;20398;-61
2023/03/30 06:15:10;;;;;;;9.18;7.63;;;8.30;99.90;;;;;;4992607;28;20106;-61
2023/03/30 06:17:36;;;;;;;10.02;8.48;;;8.30;99.90;;;;;;4997537;28;20049;-61
2023/03/30 06:20:09;;;;;;;11.48;9.80;;;8.30;99.90;;;;;;4993634;28;20069;-60
2023/03/30 06:22:35;;;;;;;15.52;10.50;;;8.30;99.90;;;;;;5002947;28;20101;-60
2023/03/30 06:25:01;;;;;;;13.32;10.40;;;8.40;99.90;;;;;;4996211;28;20109;-59
2023/03/30 06:27:30;;;;;;;13.80;10.05;;;8.50;99.90;;;;;;4995420;28;20023;-60
2023/03/30 06:29:56;;;;;;;16.25;9.85;;;8.50;99.90;;;;;;4995915;28;20069;-60
2023/03/30 06:32:21;;;;;;;13.25;10.40;;;8.60;99.90;;;;;;4996521;28;20034;-58
2023/03/30 06:34:47;;;;;;;13.13;9.32;;;8.70;99.90;;;;;;4996113;28;20022;-61
2023/03/30 06:37:14;;;;;;;28.13;10.00;;;8.70;99.90;;;;;;4994285;28;20572;-59
2023/03/30 06:39:39;;;;;;;11.05;9.30;;;8.80;99.90;;;;;;4996771;28;20053;-57
2023/03/30 06:42:05;;;;;;;13.25;9.70;;;8.90;99.90;;;;;;4997126;28;20526;-58
2023/03/30 06:44:33;;;;;;;10.90;9.05;;;9.00;99.90;;;;;;4998785;28;20490;-59
2023/03/30 06:46:59;;;;;;;13.15;9.75;;;9.10;99.90;;;;;;4999893;28;20037;-57
2023/03/30 06:49:25;;;;;;;9.85;8.43;;;9.10;99.90;;;;;;5001944;28;20105;-60
2023/03/30 06:51:50;;;;;;;17.27;9.10;;;9.20;99.90;;;;;;4996966;28;20186;-59
2023/03/30 06:54:19;;;;;;;11.80;8.80;;;9.40;99.90;;;;;;4998843;28;20427;-57
2023/03/30 06:56:45;;;;;;;11.25;8.48;;;9.50;99.90;;;;;;4999568;28;20030;-58
2023/03/30 06:59:12;;;;;;;19.30;8.85;;;9.60;99.90;;;;;;4999270;28;20041;-59
2023/03/30 07:01:38;;;;;;;14.10;7.80;;;9.70;99.90;;;;;;5000255;28;20506;-59
2023/03/30 07:04:04;;;;;;;13.88;8.45;;;9.70;99.90;;;;;;4999549;28;20052;-59
2023/03/30 07:06:30;;;;;;;12.52;7.30;;;9.80;99.90;;;;;;4995885;28;20041;-58
2023/03/30 07:08:56;;;;;;;11.80;7.65;;;9.90;99.90;;;;;;4999451;28;20018;-60
2023/03/30 07:11:22;;;;;;;10.30;6.65;;;9.90;99.90;;;;;;4996425;28;20594;-59
2023/03/30 07:13:48;;;;;;;7.65;6.72;;;9.90;99.90;;;;;;4999164;28;20092;-59
2023/03/30 07:16:13;;;;;;;9.02;6.63;;;9.90;99.90;;;;;;4997214;28;20043;-59
2023/03/30 07:18:39;;;;;;;13.75;7.60;;;9.90;99.90;;;;;;4998920;28;20775;-58
2023/03/30 07:21:05;;;;;;;12.65;8.00;;;9.80;99.90;;;;;;4999729;28;20036;-60
2023/03/30 07:23:31;;;;;;;10.27;7.90;;;9.80;99.90;;;;;;4999435;28;20117;-60
2023/03/30 07:25:57;;;;;;;13.18;8.07;;;9.70;99.90;;;;;;5000544;28;20101;-59
2023/03/30 07:28:23;;;;;;;14.63;7.82;;;9.70;99.90;;;;;;5000352;28;20029;-59
2023/03/30 07:30:48;;;;;;;18.55;8.63;;;9.60;99.90;;;;;;5000024;28;20088;-59
2023/03/30 07:33:14;;;;;;;15.68;7.93;;;9.60;99.90;;;;;;4998115;28;20034;-59
2023/03/30 07:35:44;;;;;;;11.35;7.38;;;9.50;99.90;;;;;;5000599;28;20454;-57
2023/03/30 07:38:11;;;;;;;12.63;8.57;;;9.40;99.90;;;;;;5000629;28;20033;-57
2023/03/30 07:40:36;;;;;;;12.30;8.93;;;9.40;99.90;;;;;;5000003;28;20107;-58
2023/03/30 07:43:02;;;;;;;14.73;8.27;;;9.30;99.90;;;;;;4995783;28;20050;-58
2023/03/30 07:45:28;;;;;;;15.35;9.35;;;9.30;99.90;;;;;;5000289;28;20026;-59
2023/03/30 07:47:53;;;;;;;17.35;9.70;;;9.20;99.90;;;;;;5002046;28;20030;-59
2023/03/30 07:50:20;;;;;;;23.65;10.32;;;9.20;99.90;;;;;;4997958;28;20045;-59
2023/03/30 07:52:46;;;;;;;10.50;9.50;;;9.20;99.90;;;;;;4997736;28;20682;-57
2023/03/30 07:55:12;;;;;;;26.45;11.40;;;9.20;99.90;;;;;;5001019;28;20042;-59
2023/03/30 07:57:37;;;;;;;20.02;11.77;;;9.20;99.90;;;;;;4998217;28;20049;-60
2023/03/30 08:00:05;;;;;;;38.80;13.13;;;9.10;99.90;;;;;;4999143;28;20129;-60
2023/03/30 08:02:30;;;;;;;18.48;8.10;;;9.10;99.90;;;;;;4999194;28;20034;-61
2023/03/30 08:04:56;;;;;;;18.55;9.73;;;9.20;99.90;;;;;;4999344;28;20582;-59
2023/03/30 08:07:22;;;;;;;14.90;9.93;;;9.30;99.90;;;;;;5000011;28;20030;-59
2023/03/30 08:09:48;;;;;;;11.90;10.70;;;9.30;99.90;;;;;;4998572;28;20040;-58
2023/03/30 08:12:14;;;;;;;23.35;11.20;;;9.30;99.90;;;;;;4997842;28;20049;-58
2023/03/30 08:14:40;;;;;;;29.95;12.88;;;9.30;99.90;;;;;;4995180;28;20065;-59
2023/03/30 08:17:05;;;;;;;24.23;12.75;;;9.30;99.90;;;;;;4994425;28;20471;-60
2023/03/30 08:19:31;;;;;;;33.58;16.75;;;9.30;99.90;;;;;;4995912;28;20030;-61
2023/03/30 08:21:57;;;;;;;37.30;17.75;;;9.30;99.90;;;;;;4996617;28;20026;-61
2023/03/30 08:24:22;;;;;;;43.47;16.75;;;9.40;99.90;;;;;;4999346;28;20552;-58
2023/03/30 08:26:48;;;;;;;57.40;16.38;;;9.50;99.90;;;;;;4997171;28;20605;-60
2023/03/30 08:29:13;;;;;;;33.92;13.00;;;9.60;99.90;;;;;;4995085;28;20033;-61
2023/03/30 08:31:39;;;;;;;22.15;12.27;;;9.60;99.90;;;;;;4999962;28;20030;-59
2023/03/30 08:34:06;;;;;;;26.83;12.57;;;9.70;99.90;;;;;;4998886;28;20030;-59
2023/03/30 08:36:32;;;;;;;31.92;11.68;;;9.80;99.90;;;;;;4994987;28;20049;-59
2023/03/30 08:38:58;;;;;;;21.83;11.73;;;9.80;99.90;;;;;;4998819;28;20026;-60
2023/03/30 08:41:27;;;;;;;28.40;9.82;;;9.80;99.90;;;;;;4997899;28;20031;-61
2023/03/30 08:44:06;;;;;;;29.85;11.55;;;9.80;99.90;;;;;;4998941;28;20165;-58
2023/03/30 08:46:32;;;;;;;32.97;12.18;;;9.70;99.90;;;;;;4996161;28;20558;-60
2023/03/30 08:49:03;;;;;;;34.53;12.82;;;9.70;99.90;;;;;;4998686;28;20129;-61
2023/03/30 08:51:32;;;;;;;29.90;11.55;;;9.70;99.90;;;;;;4997379;28;20407;-60
2023/03/30 08:54:01;;;;;;;27.58;11.23;;;9.70;99.90;;;;;;4995929;28;20027;-59
2023/03/30 08:56:56;;;;;;;34.05;12.02;;;9.70;99.90;;;;;;4999053;28;20061;-58
2023/03/30 09:00:05;;;;;;;29.00;11.25;;;9.70;99.90;;;;;;4997285;28;20065;-59
2023/03/30 09:02:35;;;;;;;17.42;9.13;;;9.70;99.90;;;;;;5000217;28;20037;-59
2023/03/30 09:05:36;;;;;;;13.68;8.93;;;9.70;99.90;;;;;;4997234;28;20502;-60
2023/03/30 09:08:27;;;;;;;38.38;10.30;;;9.80;99.90;;;;;;4995419;28;20034;-58
2023/03/30 09:11:00;;;;;;;24.38;10.35;;;9.80;99.90;;;;;;4997502;28;20112;-60
2023/03/30 09:13:34;;;;;;;27.88;10.93;;;9.80;99.90;;;;;;4996423;28;20065;-60
2023/03/30 09:16:05;;;;;;;36.95;11.75;;;9.80;99.90;;;;;;4997614;28;20397;-59
2023/03/30 09:18:36;;;;;;;22.33;8.90;;;9.90;99.90;;;;;;4997382;28;20479;-59
2023/03/30 09:21:04;;;;;;;;;;;10.00;99.90;;;;;;4998557;28;20033;-58
2023/03/30 09:23:31;;;;;;;33.72;11.18;;;10.00;99.90;;;;;;4996489;28;20348;-59
2023/03/30 09:26:10;;;;;;;16.00;10.02;;;10.10;99.90;;;;;;4997756;28;20058;-58
2023/03/30 09:29:23;;;;;;;19.73;9.27;;;10.10;99.90;;;;;;4999469;28;20026;-60
2023/03/30 09:32:02;;;;;;;14.77;5.95;;;10.20;99.90;;;;;;4999769;28;20056;-61
2023/03/30 09:34:40;;;;;;;12.52;5.47;;;10.20;99.90;;;;;;4995722;28;20124;-58
2023/03/30 09:37:10;;;;;;;18.42;8.45;;;10.30;99.90;;;;;;4997405;28;20037;-59
2023/03/30 09:39:37;;;;;;;12.65;4.80;;;10.40;99.90;;;;;;5000661;28;20879;-58
2023/03/30 09:42:34;;;;;;;6.05;3.90;;;10.50;99.90;;;;;;4996790;28;20040;-60
2023/03/30 09:45:04;;;;;;;10.85;4.40;;;10.50;99.90;;;;;;4997366;28;20018;-59
2023/03/30 09:47:35;;;;;;;7.90;4.57;;;10.50;99.90;;;;;;4996554;28;20023;-57
2023/03/30 09:50:06;;;;;;;6.85;5.13;;;10.50;99.90;;;;;;4996765;28;20612;-58
2023/03/30 09:52:35;;;;;;;12.38;4.40;;;10.50;99.90;;;;;;4994758;28;20506;-58
2023/03/30 09:55:24;;;;;;;7.10;4.07;;;10.50;99.90;;;;;;4996002;28;20053;-58
2023/03/30 09:57:51;;;;;;;11.60;5.40;;;10.50;99.90;;;;;;4995879;28;20050;-59
2023/03/30 10:00:28;;;;;;;9.52;4.88;;;10.50;99.90;;;;;;4999210;28;20030;-59
2023/03/30 10:03:06;;;;;;;9.70;5.55;;;10.60;99.90;;;;;;4996629;28;20030;-61
2023/03/30 10:05:34;;;;;;;9.98;5.00;;;10.70;99.90;;;;;;4994831;28;20029;-58
2023/03/30 10:08:03;;;;;;;14.93;10.38;;;10.90;99.90;;;;;;4996634;28;20026;-60
2023/03/30 10:10:35;;;;;;;10.70;9.70;;;11.10;99.90;;;;;;4997747;28;20029;-59
2023/03/30 10:13:15;;;;;;;10.30;6.95;;;11.30;99.90;;;;;;4997533;28;20085;-59
2023/03/30 10:15:44;;;;;;;10.13;5.65;;;11.40;99.90;;;;;;4999215;28;20038;-59
2023/03/30 10:18:34;;;;;;;16.10;5.13;;;11.40;99.90;;;;;;4996670;28;20038;-58
2023/03/30 10:21:05;;;;;;;10.60;4.68;;;11.50;99.90;;;;;;4996726;28;20391;-58
2023/03/30 10:23:41;;;;;;;7.63;5.13;;;11.70;99.90;;;;;;4995388;28;20034;-58
2023/03/30 10:26:29;;;;;;;7.55;3.95;;;11.90;99.90;;;;;;5000414;28;20041;-59
2023/03/30 10:29:06;;;;;;;6.10;3.13;;;12.10;99.90;;;;;;4993909;28;20025;-59
2023/03/30 10:31:37;;;;;;;11.90;2.97;;;12.00;99.90;;;;;;4997175;28;20029;-60
2023/03/30 10:34:13;;;;;;;4.38;2.67;;;12.10;99.90;;;;;;4997878;28;20121;-58
2023/03/30 10:36:39;;;;;;;7.25;2.95;;;12.10;99.90;;;;;;5003004;28;20452;-57
2023/03/30 10:39:10;;;;;;;4.45;2.85;;;12.20;99.90;;;;;;4998457;28;20112;-58
2023/03/30 10:41:38;;;;;;;5.95;2.88;;;12.30;99.90;;;;;;4999657;28;20027;-58
2023/03/30 10:44:21;;;;;;;3.83;2.47;;;12.60;99.90;;;;;;4994835;28;20022;-60
2023/03/30 10:46:49;;;;;;;4.03;2.80;;;12.90;99.90;;;;;;4998168;28;20031;-59
2023/03/30 10:49:41;;;;;;;8.00;2.60;;;13.10;99.90;;;;;;4997081;28;20041;-60
2023/03/30 10:52:25;;;;;;;3.67;1.85;;;13.30;99.90;;;;;;4995160;28;20100;-59
2023/03/30 10:55:07;;;;;;;5.68;2.28;;;13.60;99.90;;;;;;4997651;28;20045;-61
2023/03/30 10:57:58;;;;;;;7.68;2.55;;;13.80;99.90;;;;;;4995576;28;20437;-59
2023/03/30 11:00:47;;;;;;;6.85;2.50;;;13.90;99.90;;;;;;4999057;28;20034;-61
2023/03/30 11:03:21;;;;;;;6.28;2.50;;;13.90;99.90;;;;;;4997312;28;20033;-59
2023/03/30 11:05:54;;;;;;;6.20;1.90;;;14.20;99.90;;;;;;4998354;28;20537;-61
2023/03/30 11:08:31;;;;;;;5.68;2.50;;;14.60;99.90;;;;;;4996475;28;20050;-60
2023/03/30 11:10:59;;;;;;;7.65;2.88;;;15.10;99.90;;;;;;4995602;28;20026;-62
2023/03/30 11:13:38;;;;;;;4.75;2.47;;;15.80;99.90;;;;;;4995862;28;20037;-60
2023/03/30 11:16:15;;;;;;;5.22;1.80;;;16.10;99.90;;;;;;4995065;28;20099;-60
2023/03/30 11:19:11;;;;;;;5.13;1.83;;;15.90;99.90;;;;;;4994804;28;20403;-59
2023/03/30 11:21:52;;;;;;;6.18;1.88;;;15.50;99.90;;;;;;4995168;28;20038;-59
2023/03/30 11:24:25;;;;;;;6.90;2.55;;;15.00;99.90;;;;;;4996938;28;20101;-58
2023/03/30 11:27:01;;;;;;;7.20;2.30;;;14.60;99.90;;;;;;4996220;28;20027;-60
2023/03/30 11:29:30;;;;;;;3.42;1.73;;;14.20;99.90;;;;;;4998876;28;20076;-59
2023/03/30 11:32:10;;;;;;;3.97;2.20;;;13.90;99.90;;;;;;5000190;28;20376;-60
2023/03/30 11:34:43;;;;;;;7.72;2.47;;;13.70;99.90;;;;;;5000019;28;20125;-60
2023/03/30 11:37:23;;;;;;;6.07;2.13;;;13.80;99.90;;;;;;4996188;28;20069;-59
2023/03/30 11:40:15;;;;;;;8.32;2.03;;;13.80;99.90;;;;;;4996742;28;20041;-59
2023/03/30 11:42:42;;;;;;;3.53;2.38;;;13.80;99.90;;;;;;4998380;28;20148;-58
2023/03/30 11:45:16;;;;;;;4.43;2.15;;;13.80;99.90;;;;;;4999766;28;20450;-59
2023/03/30 11:47:42;;;;;;;7.70;2.25;;;13.80;99.90;;;;;;4999195;28;20106;-58
2023/03/30 11:50:17;;;;;;;4.25;2.00;;;13.70;99.90;;;;;;5001011;28;20133;-59
2023/03/30 11:52:58;;;;;;;3.75;2.10;;;13.60;99.90;;;;;;5001261;28;20034;-58
2023/03/30 11:55:38;;;;;;;6.95;2.88;;;13.50;99.90;;;;;;5001530;28;20038;-59
2023/03/30 11:58:13;;;;;;;5.85;2.17;;;13.40;99.90;;;;;;4996610;28;20034;-58
2023/03/30 12:00:50;;;;;;;8.50;2.45;;;13.40;99.90;;;;;;4998442;28;20090;-59
2023/03/30 12:03:37;;;;;;;7.90;3.30;;;13.30;99.90;;;;;;4997421;28;20379;-58
2023/03/30 12:06:12;;;;;;;5.13;2.25;;;13.30;99.90;;;;;;5000204;28;20042;-60
2023/03/30 12:08:47;;;;;;;7.97;2.38;;;13.30;99.90;;;;;;5001918;28;20034;-60
2023/03/30 12:11:28;;;;;;;3.85;2.13;;;13.30;99.90;;;;;;4998053;28;20034;-59
2023/03/30 12:13:55;;;;;;;7.53;2.83;;;13.30;99.90;;;;;;4999781;28;20025;-59
2023/03/30 12:16:49;;;;;;;4.95;2.17;;;13.60;99.90;;;;;;5000114;28;20042;-59
2023/03/30 12:19:24;;;;;;;5.50;1.70;;;14.00;99.90;;;;;;4997621;28;20436;-59
2023/03/30 12:22:00;;;;;;;10.38;2.65;;;14.40;99.90;;;;;;4999429;28;20043;-59
2023/03/30 12:24:35;;;;;;;3.85;1.80;;;15.00;99.90;;;;;;4999671;28;20030;-59
2023/03/30 12:27:01;;;;;;;5.60;1.90;;;15.50;99.90;;;;;;4998907;28;20076;-59
2023/03/30 12:29:43;;;;;;;4.90;2.20;;;15.70;99.90;;;;;;4996988;28;20030;-59
2023/03/30 12:32:18;;;;;;;5.63;2.17;;;15.70;99.90;;;;;;5000520;28;20033;-59
2023/03/30 12:34:44;;;;;;;4.40;1.50;;;15.50;99.90;;;;;;4998728;28;20030;-60
2023/03/30 12:37:33;;;;;;;6.18;2.17;;;15.40;99.90;;;;;;5002368;28;20064;-59
2023/03/30 12:40:17;;;;;;;5.03;2.30;;;15.10;99.90;;;;;;4997542;28;20498;-60
2023/03/30 12:43:38;;;;;;;2.42;1.83;;;14.90;99.90;;;;;;4998503;28;20046;-59
2023/03/30 12:46:18;;;;;;;4.90;2.30;;;14.60;99.90;;;;;;4994979;28;20042;-59
2023/03/30 12:49:23;;;;;;;4.03;2.05;;;14.40;99.90;;;;;;4998141;28;20041;-60
2023/03/30 12:52:16;;;;;;;6.78;2.08;;;14.30;99.90;;;;;;4994065;28;20064;-59
2023/03/30 12:54:58;;;;;;;3.20;1.90;;;14.30;99.90;;;;;;4998502;28;20045;-59
2023/03/30 12:58:01;;;;;;;4.32;2.35;;;14.40;99.90;;;;;;4996376;28;20034;-59
2023/03/30 13:00:26;;;;;;;3.90;1.73;;;14.60;99.90;;;;;;4997621;28;20058;-57
2023/03/30 13:03:27;;;;;;;3.10;1.83;;;14.60;99.90;;;;;;4999420;28;20108;-59
2023/03/30 13:05:56;;;;;;;3.80;2.13;;;14.60;99.90;;;;;;4998718;28;20029;-59
2023/03/30 13:08:35;;;;;;;3.47;1.73;;;14.60;99.90;;;;;;5001093;28;20041;-60
2023/03/30 13:11:06;;;;;;;4.80;1.80;;;14.80;99.90;;;;;;4996298;28;20506;-57
2023/03/30 13:13:59;;;;;;;3.90;1.83;;;14.80;99.90;;;;;;5001897;28;20025;-59